Urbana, Maryland
Current Conditions -  °F | °C
As of 4:55 AM on Saturday 29 Nov 2014 (Local Time) from KFDK Reporting Station
Overcast Overcast  
Wind Chill: 32°   Ceiling: 4400
Heat Index: 32°   Visibility: 10mi
Dew Point: 23°   Wind: 0mph
Humidity: 69%   Direction: NA
Pressure: 30.33"   Gusts: NA
Location:  39.3474°N, 77.3714°W
Report Text: KFDK 290955Z AUTO 00000KT 10SM BKN044 OVC050 00/M05 A3033 RMK AO2
Loading
Personal Weather Stations






























Interactive Weather Map New forecast layout! Learn more

10-Day Weather Forecast

Advertisements
Track Severe Weather on mobile